sensor_id;sensor_type;location;lat;lon;timestamp;P1;durP1;ratioP1;P2;durP2;ratioP2
6638;SDS011;3355;52.882;8.430;2023-08-24T08:01:24;7.23;;;3.90;;
6638;SDS011;3355;52.882;8.430;2023-08-24T08:03:50;8.63;;;4.07;;
6638;SDS011;3355;52.882;8.430;2023-08-24T08:06:17;5.70;;;3.93;;
6638;SDS011;3355;52.882;8.430;2023-08-24T08:08:43;5.30;;;3.60;;
6638;SDS011;3355;52.882;8.430;2023-08-24T08:11:11;6.50;;;3.50;;
6638;SDS011;3355;52.882;8.430;2023-08-24T08:13:38;7.60;;;4.83;;
6638;SDS011;3355;52.882;8.430;2023-08-24T08:16:05;4.13;;;3.70;;
6638;SDS011;3355;52.882;8.430;2023-08-24T08:18:34;4.23;;;3.83;;
6638;SDS011;3355;52.882;8.430;2023-08-24T08:21:03;4.57;;;3.40;;
6638;SDS011;3355;52.882;8.430;2023-08-24T08:23:35;6.20;;;4.67;;
6638;SDS011;3355;52.882;8.430;2023-08-24T08:26:01;4.57;;;3.87;;
6638;SDS011;3355;52.882;8.430;2023-08-24T08:28:28;5.47;;;4.50;;
6638;SDS011;3355;52.882;8.430;2023-08-24T08:30:54;4.60;;;4.20;;
6638;SDS011;3355;52.882;8.430;2023-08-24T08:33:21;6.30;;;5.10;;
6638;SDS011;3355;52.882;8.430;2023-08-24T08:35:50;7.77;;;5.23;;
6638;SDS011;3355;52.882;8.430;2023-08-24T08:38:16;7.23;;;5.70;;
6638;SDS011;3355;52.882;8.430;2023-08-24T08:40:47;5.83;;;5.23;;
6638;SDS011;3355;52.882;8.430;2023-08-24T08:43:15;5.10;;;4.60;;
6638;SDS011;3355;52.882;8.430;2023-08-24T08:45:42;7.27;;;5.73;;
6638;SDS011;3355;52.882;8.430;2023-08-24T08:48:08;7.00;;;5.30;;
6638;SDS011;3355;52.882;8.430;2023-08-24T08:50:35;7.90;;;5.17;;
6638;SDS011;3355;52.882;8.430;2023-08-24T08:53:03;5.53;;;5.03;;
6638;SDS011;3355;52.882;8.430;2023-08-24T08:55:30;7.00;;;5.30;;
6638;SDS011;3355;52.882;8.430;2023-08-24T08:57:58;7.53;;;6.07;;
6638;SDS011;3355;52.882;8.430;2023-08-24T09:00:24;9.17;;;6.40;;
6638;SDS011;3355;52.882;8.430;2023-08-24T09:02:52;8.33;;;5.63;;
6638;SDS011;3355;52.882;8.430;2023-08-24T09:05:19;6.77;;;6.07;;
6638;SDS011;3355;52.882;8.430;2023-08-24T09:07:46;7.50;;;6.10;;
6638;SDS011;3355;52.882;8.430;2023-08-24T09:10:15;8.60;;;5.50;;
6638;SDS011;3355;52.882;8.430;2023-08-24T09:12:41;7.57;;;5.73;;
6638;SDS011;3355;52.882;8.430;2023-08-24T09:15:08;7.87;;;7.07;;
6638;SDS011;3355;52.882;8.430;2023-08-24T09:17:35;6.80;;;6.10;;
6638;SDS011;3355;52.882;8.430;2023-08-24T09:20:05;6.90;;;6.20;;
6638;SDS011;3355;52.882;8.430;2023-08-24T09:22:34;8.73;;;5.80;;
6638;SDS011;3355;52.882;8.430;2023-08-24T09:25:01;8.40;;;6.47;;
6638;SDS011;3355;52.882;8.430;2023-08-24T09:27:31;9.10;;;6.73;;
6638;SDS011;3355;52.882;8.430;2023-08-24T09:29:58;6.93;;;5.80;;
6638;SDS011;3355;52.882;8.430;2023-08-24T09:32:27;7.23;;;5.60;;
6638;SDS011;3355;52.882;8.430;2023-08-24T09:34:54;5.63;;;5.03;;
6638;SDS011;3355;52.882;8.430;2023-08-24T09:37:20;7.27;;;5.60;;
6638;SDS011;3355;52.882;8.430;2023-08-24T09:39:47;5.47;;;4.70;;
6638;SDS011;3355;52.882;8.430;2023-08-24T09:42:14;7.33;;;5.37;;
6638;SDS011;3355;52.882;8.430;2023-08-24T09:44:44;6.47;;;5.87;;
6638;SDS011;3355;52.882;8.430;2023-08-24T09:47:11;7.13;;;6.10;;
6638;SDS011;3355;52.882;8.430;2023-08-24T09:49:38;6.47;;;5.80;;
6638;SDS011;3355;52.882;8.430;2023-08-24T09:52:06;6.90;;;5.37;;
6638;SDS011;3355;52.882;8.430;2023-08-24T09:54:35;7.05;;;5.85;;
6638;SDS011;3355;52.882;8.430;2023-08-24T09:57:03;7.63;;;5.63;;
6638;SDS011;3355;52.882;8.430;2023-08-24T09:59:31;6.70;;;4.70;;
6638;SDS011;3355;52.882;8.430;2023-08-24T10:02:00;7.60;;;4.40;;
6638;SDS011;3355;52.882;8.430;2023-08-24T10:04:28;6.78;;;5.45;;
6638;SDS011;3355;52.882;8.430;2023-08-24T10:06:55;7.17;;;4.67;;
6638;SDS011;3355;52.882;8.430;2023-08-24T10:09:26;7.57;;;4.53;;
6638;SDS011;3355;52.882;8.430;2023-08-24T10:11:55;6.72;;;4.85;;
6638;SDS011;3355;52.882;8.430;2023-08-24T10:14:24;6.20;;;3.88;;
6638;SDS011;3355;52.882;8.430;2023-08-24T10:16:54;7.05;;;4.35;;
6638;SDS011;3355;52.882;8.430;2023-08-24T10:19:22;5.20;;;4.70;;
6638;SDS011;3355;52.882;8.430;2023-08-24T10:21:49;5.25;;;4.75;;
6638;SDS011;3355;52.882;8.430;2023-08-24T10:24:16;5.70;;;4.50;;
6638;SDS011;3355;52.882;8.430;2023-08-24T10:26:46;7.57;;;5.43;;
6638;SDS011;3355;52.882;8.430;2023-08-24T10:29:12;4.30;;;3.90;;
6638;SDS011;3355;52.882;8.430;2023-08-24T10:31:39;6.15;;;4.47;;
6638;SDS011;3355;52.882;8.430;2023-08-24T10:34:06;6.47;;;4.80;;
6638;SDS011;3355;52.882;8.430;2023-08-24T10:36:35;7.57;;;4.50;;
6638;SDS011;3355;52.882;8.430;2023-08-24T10:39:02;5.95;;;4.50;;
6638;SDS011;3355;52.882;8.430;2023-08-24T10:41:39;4.20;;;3.80;;
6638;SDS011;3355;52.882;8.430;2023-08-24T10:44:13;5.18;;;4.53;;
6638;SDS011;3355;52.882;8.430;2023-08-24T10:46:57;5.15;;;4.65;;
6638;SDS011;3355;52.882;8.430;2023-08-24T10:49:31;4.75;;;4.35;;
6638;SDS011;3355;52.882;8.430;2023-08-24T10:51:59;4.30;;;3.90;;
6638;SDS011;3355;52.882;8.430;2023-08-24T10:54:42;4.68;;;4.18;;
6638;SDS011;3355;52.882;8.430;2023-08-24T10:57:10;4.93;;;4.53;;
6638;SDS011;3355;52.882;8.430;2023-08-24T10:59:44;4.15;;;3.75;;
6638;SDS011;3355;52.882;8.430;2023-08-24T11:02:17;4.40;;;3.97;;
6638;SDS011;3355;52.882;8.430;2023-08-24T11:07:34;3.30;;;3.00;;
6638;SDS011;3355;52.882;8.430;2023-08-24T11:10:10;5.95;;;3.78;;
6638;SDS011;3355;52.882;8.430;2023-08-24T11:15:30;4.38;;;3.97;;
6638;SDS011;3355;52.882;8.430;2023-08-24T11:18:10;3.58;;;2.97;;
6638;SDS011;3355;52.882;8.430;2023-08-24T11:20:49;4.05;;;3.75;;
6638;SDS011;3355;52.882;8.430;2023-08-24T11:23:16;5.03;;;3.55;;
6638;SDS011;3355;52.882;8.430;2023-08-24T11:25:44;3.83;;;3.35;;
6638;SDS011;3355;52.882;8.430;2023-08-24T11:28:10;3.70;;;3.28;;
6638;SDS011;3355;52.882;8.430;2023-08-24T11:30:37;4.95;;;4.05;;
6638;SDS011;3355;52.882;8.430;2023-08-24T11:33:04;5.65;;;3.50;;
6638;SDS011;3355;52.882;8.430;2023-08-24T11:35:34;4.00;;;3.58;;
6638;SDS011;3355;52.882;8.430;2023-08-24T11:38:02;4.00;;;3.55;;
6638;SDS011;3355;52.882;8.430;2023-08-24T11:40:30;3.78;;;2.70;;
6638;SDS011;3355;52.882;8.430;2023-08-24T11:42:57;4.45;;;3.63;;
6638;SDS011;3355;52.882;8.430;2023-08-24T11:45:23;3.65;;;3.35;;
6638;SDS011;3355;52.882;8.430;2023-08-24T11:47:50;4.75;;;3.00;;
6638;SDS011;3355;52.882;8.430;2023-08-24T11:50:18;3.92;;;3.30;;
6638;SDS011;3355;52.882;8.430;2023-08-24T11:52:45;3.47;;;3.17;;
6638;SDS011;3355;52.882;8.430;2023-08-24T11:55:11;4.15;;;2.97;;
6638;SDS011;3355;52.882;8.430;2023-08-24T11:57:39;6.50;;;3.50;;
6638;SDS011;3355;52.882;8.430;2023-08-24T12:00:07;4.50;;;3.45;;
6638;SDS011;3355;52.882;8.430;2023-08-24T12:02:38;3.70;;;3.25;;
6638;SDS011;3355;52.882;8.430;2023-08-24T12:05:05;3.80;;;3.50;;
6638;SDS011;3355;52.882;8.430;2023-08-24T12:07:32;4.20;;;3.83;;
6638;SDS011;3355;52.882;8.430;2023-08-24T12:09:59;4.30;;;3.22;;
6638;SDS011;3355;52.882;8.430;2023-08-24T12:12:26;3.78;;;3.05;;
6638;SDS011;3355;52.882;8.430;2023-08-24T12:14:55;3.70;;;3.40;;
6638;SDS011;3355;52.882;8.430;2023-08-24T12:17:22;3.90;;;3.60;;
6638;SDS011;3355;52.882;8.430;2023-08-24T12:19:56;4.07;;;3.35;;
6638;SDS011;3355;52.882;8.430;2023-08-24T12:22:24;5.07;;;3.83;;
6638;SDS011;3355;52.882;8.430;2023-08-24T12:24:50;4.00;;;3.60;;
6638;SDS011;3355;52.882;8.430;2023-08-24T12:27:17;3.90;;;3.10;;
6638;SDS011;3355;52.882;8.430;2023-08-24T12:29:44;3.35;;;3.05;;
6638;SDS011;3355;52.882;8.430;2023-08-24T12:32:12;3.75;;;2.88;;
6638;SDS011;3355;52.882;8.430;2023-08-24T12:34:40;3.50;;;3.03;;
6638;SDS011;3355;52.882;8.430;2023-08-24T12:37:07;3.42;;;3.13;;
6638;SDS011;3355;52.882;8.430;2023-08-24T12:39:35;3.67;;;2.78;;
6638;SDS011;3355;52.882;8.430;2023-08-24T12:42:01;4.30;;;2.80;;
6638;SDS011;3355;52.882;8.430;2023-08-24T12:44:28;3.20;;;2.90;;
6638;SDS011;3355;52.882;8.430;2023-08-24T12:46:54;3.72;;;3.42;;
6638;SDS011;3355;52.882;8.430;2023-08-24T12:49:22;3.70;;;2.95;;
6638;SDS011;3355;52.882;8.430;2023-08-24T12:51:48;3.67;;;2.90;;
6638;SDS011;3355;52.882;8.430;2023-08-24T12:54:15;3.13;;;2.80;;
6638;SDS011;3355;52.882;8.430;2023-08-24T12:56:42;3.08;;;2.78;;
6638;SDS011;3355;52.882;8.430;2023-08-24T12:59:08;3.92;;;2.92;;
6638;SDS011;3355;52.882;8.430;2023-08-24T13:01:35;4.10;;;3.30;;
6638;SDS011;3355;52.882;8.430;2023-08-24T13:04:01;3.13;;;2.83;;
6638;SDS011;3355;52.882;8.430;2023-08-24T13:06:29;3.75;;;3.35;;
6638;SDS011;3355;52.882;8.430;2023-08-24T13:08:56;4.15;;;3.20;;
6638;SDS011;3355;52.882;8.430;2023-08-24T13:11:22;3.85;;;3.45;;
6638;SDS011;3355;52.882;8.430;2023-08-24T13:13:49;3.38;;;2.97;;
6638;SDS011;3355;52.882;8.430;2023-08-24T13:16:15;4.35;;;3.05;;
6638;SDS011;3355;52.882;8.430;2023-08-24T13:18:42;3.20;;;2.90;;
6638;SDS011;3355;52.882;8.430;2023-08-24T13:21:08;4.05;;;2.75;;
6638;SDS011;3355;52.882;8.430;2023-08-24T13:23:36;10.88;;;3.15;;
6638;SDS011;3355;52.882;8.430;2023-08-24T13:26:03;4.18;;;3.17;;
6638;SDS011;3355;52.882;8.430;2023-08-24T13:28:29;3.00;;;2.55;;
6638;SDS011;3355;52.882;8.430;2023-08-24T13:31:01;4.80;;;3.53;;
6638;SDS011;3355;52.882;8.430;2023-08-24T13:33:28;4.28;;;3.28;;
6638;SDS011;3355;52.882;8.430;2023-08-24T13:35:55;3.00;;;2.70;;
6638;SDS011;3355;52.882;8.430;2023-08-24T13:38:21;5.07;;;2.90;;
6638;SDS011;3355;52.882;8.430;2023-08-24T13:40:49;3.50;;;3.20;;
6638;SDS011;3355;52.882;8.430;2023-08-24T13:43:15;3.50;;;3.20;;
6638;SDS011;3355;52.882;8.430;2023-08-24T13:45:42;4.05;;;2.92;;
6638;SDS011;3355;52.882;8.430;2023-08-24T13:48:09;2.85;;;2.65;;
6638;SDS011;3355;52.882;8.430;2023-08-24T13:50:35;5.18;;;3.30;;
6638;SDS011;3355;52.882;8.430;2023-08-24T13:53:02;5.00;;;3.25;;
6638;SDS011;3355;52.882;8.430;2023-08-24T13:55:29;3.95;;;3.30;;
6638;SDS011;3355;52.882;8.430;2023-08-24T13:57:56;4.40;;;3.55;;
6638;SDS011;3355;52.882;8.430;2023-08-24T14:00:23;4.47;;;4.03;;
6638;SDS011;3355;52.882;8.430;2023-08-24T14:02:50;4.55;;;3.67;;
6638;SDS011;3355;52.882;8.430;2023-08-24T14:05:17;3.70;;;3.38;;
6638;SDS011;3355;52.882;8.430;2023-08-24T14:07:43;3.75;;;3.42;;
6638;SDS011;3355;52.882;8.430;2023-08-24T14:10:10;3.42;;;3.13;;
6638;SDS011;3355;52.882;8.430;2023-08-24T14:12:37;5.03;;;4.25;;
6638;SDS011;3355;52.882;8.430;2023-08-24T14:15:05;4.35;;;3.55;;
6638;SDS011;3355;52.882;8.430;2023-08-24T14:17:32;5.47;;;4.65;;
6638;SDS011;3355;52.882;8.430;2023-08-24T14:19:59;3.88;;;3.45;;
6638;SDS011;3355;52.882;8.430;2023-08-24T14:22:25;7.55;;;4.00;;
6638;SDS011;3355;52.882;8.430;2023-08-24T14:24:52;5.28;;;3.58;;
6638;SDS011;3355;52.882;8.430;2023-08-24T14:27:18;4.55;;;3.63;;
6638;SDS011;3355;52.882;8.430;2023-08-24T14:29:45;4.97;;;3.67;;
6638;SDS011;3355;52.882;8.430;2023-08-24T14:32:13;5.90;;;4.10;;
6638;SDS011;3355;52.882;8.430;2023-08-24T14:34:39;4.10;;;3.70;;
6638;SDS011;3355;52.882;8.430;2023-08-24T14:37:06;4.00;;;3.70;;
6638;SDS011;3355;52.882;8.430;2023-08-24T14:39:33;5.47;;;4.07;;
6638;SDS011;3355;52.882;8.430;2023-08-24T14:41:59;3.47;;;3.17;;
6638;SDS011;3355;52.882;8.430;2023-08-24T14:44:28;3.72;;;3.38;;
6638;SDS011;3355;52.882;8.430;2023-08-24T14:46:54;4.35;;;3.95;;
6638;SDS011;3355;52.882;8.430;2023-08-24T14:49:22;4.18;;;3.65;;
6638;SDS011;3355;52.882;8.430;2023-08-24T14:51:49;3.97;;;3.67;;
6638;SDS011;3355;52.882;8.430;2023-08-24T14:54:15;4.25;;;3.85;;
6638;SDS011;3355;52.882;8.430;2023-08-24T14:56:42;4.10;;;3.60;;
6638;SDS011;3355;52.882;8.430;2023-08-24T14:59:09;4.50;;;3.95;;
6638;SDS011;3355;52.882;8.430;2023-08-24T15:01:35;3.90;;;3.60;;
6638;SDS011;3355;52.882;8.430;2023-08-24T15:04:02;4.07;;;3.63;;
6638;SDS011;3355;52.882;8.430;2023-08-24T15:06:30;4.57;;;3.97;;
6638;SDS011;3355;52.882;8.430;2023-08-24T15:08:56;4.70;;;4.05;;
6638;SDS011;3355;52.882;8.430;2023-08-24T15:11:24;3.90;;;3.50;;
6638;SDS011;3355;52.882;8.430;2023-08-24T15:13:50;4.15;;;3.75;;
6638;SDS011;3355;52.882;8.430;2023-08-24T15:16:17;4.20;;;3.80;;
6638;SDS011;3355;52.882;8.430;2023-08-24T15:18:43;3.95;;;3.63;;
6638;SDS011;3355;52.882;8.430;2023-08-24T15:21:10;4.30;;;3.90;;
6638;SDS011;3355;52.882;8.430;2023-08-24T15:23:41;4.15;;;3.80;;
6638;SDS011;3355;52.882;8.430;2023-08-24T15:26:07;6.18;;;4.00;;
6638;SDS011;3355;52.882;8.430;2023-08-24T15:28:35;4.68;;;4.18;;
6638;SDS011;3355;52.882;8.430;2023-08-24T15:31:02;4.75;;;4.07;;
6638;SDS011;3355;52.882;8.430;2023-08-24T15:33:29;6.55;;;4.15;;
6638;SDS011;3355;52.882;8.430;2023-08-24T15:35:56;4.35;;;3.88;;
6638;SDS011;3355;52.882;8.430;2023-08-24T15:38:22;5.10;;;3.92;;
6638;SDS011;3355;52.882;8.430;2023-08-24T15:40:52;4.75;;;3.78;;
6638;SDS011;3355;52.882;8.430;2023-08-24T15:43:19;5.25;;;4.07;;
6638;SDS011;3355;52.882;8.430;2023-08-24T15:45:45;4.18;;;3.65;;
6638;SDS011;3355;52.882;8.430;2023-08-24T15:48:12;5.18;;;4.30;;
6638;SDS011;3355;52.882;8.430;2023-08-24T15:50:39;4.53;;;4.13;;
6638;SDS011;3355;52.882;8.430;2023-08-24T15:53:05;4.25;;;3.75;;
6638;SDS011;3355;52.882;8.430;2023-08-24T15:55:32;4.78;;;3.88;;
6638;SDS011;3355;52.882;8.430;2023-08-24T15:58:00;4.13;;;3.63;;
6638;SDS011;3355;52.882;8.430;2023-08-24T16:00:27;6.47;;;4.53;;
6638;SDS011;3355;52.882;8.430;2023-08-24T16:02:54;4.57;;;4.18;;
6638;SDS011;3355;52.882;8.430;2023-08-24T16:05:21;4.50;;;4.10;;
6638;SDS011;3355;52.882;8.430;2023-08-24T16:07:47;5.27;;;4.53;;
6638;SDS011;3355;52.882;8.430;2023-08-24T16:10:17;14.83;;;5.70;;
6638;SDS011;3355;52.882;8.430;2023-08-24T16:12:43;5.03;;;4.60;;
6638;SDS011;3355;52.882;8.430;2023-08-24T16:15:11;5.20;;;4.80;;
6638;SDS011;3355;52.882;8.430;2023-08-24T16:17:38;4.90;;;4.30;;
6638;SDS011;3355;52.882;8.430;2023-08-24T16:20:04;5.10;;;4.60;;
6638;SDS011;3355;52.882;8.430;2023-08-24T16:22:34;6.20;;;4.50;;
6638;SDS011;3355;52.882;8.430;2023-08-24T16:25:01;5.33;;;4.83;;
6638;SDS011;3355;52.882;8.430;2023-08-24T16:27:28;4.77;;;4.30;;
6638;SDS011;3355;52.882;8.430;2023-08-24T16:29:55;4.40;;;4.00;;
6638;SDS011;3355;52.882;8.430;2023-08-24T16:32:23;5.47;;;4.97;;
6638;SDS011;3355;52.882;8.430;2023-08-24T16:34:49;5.53;;;5.03;;
6638;SDS011;3355;52.882;8.430;2023-08-24T16:37:16;5.40;;;4.90;;
6638;SDS011;3355;52.882;8.430;2023-08-24T16:39:42;4.77;;;4.40;;
6638;SDS011;3355;52.882;8.430;2023-08-24T16:42:09;6.10;;;5.13;;
6638;SDS011;3355;52.882;8.430;2023-08-24T16:44:35;4.90;;;4.40;;
6638;SDS011;3355;52.882;8.430;2023-08-24T16:47:02;4.60;;;4.20;;
6638;SDS011;3355;52.882;8.430;2023-08-24T16:49:30;5.13;;;4.47;;
6638;SDS011;3355;52.882;8.430;2023-08-24T16:51:57;5.70;;;4.40;;
6638;SDS011;3355;52.882;8.430;2023-08-24T16:54:23;5.60;;;4.37;;
6638;SDS011;3355;52.882;8.430;2023-08-24T16:56:50;4.67;;;4.23;;
6638;SDS011;3355;52.882;8.430;2023-08-24T16:59:16;5.53;;;4.77;;
6638;SDS011;3355;52.882;8.430;2023-08-24T17:01:43;4.63;;;4.23;;
6638;SDS011;3355;52.882;8.430;2023-08-24T17:04:09;5.27;;;4.47;;
6638;SDS011;3355;52.882;8.430;2023-08-24T17:06:37;5.40;;;5.00;;
6638;SDS011;3355;52.882;8.430;2023-08-24T17:09:04;5.40;;;4.63;;
6638;SDS011;3355;52.882;8.430;2023-08-24T17:11:30;5.20;;;4.70;;
6638;SDS011;3355;52.882;8.430;2023-08-24T17:13:57;4.73;;;4.33;;
6638;SDS011;3355;52.882;8.430;2023-08-24T17:16:23;5.40;;;4.90;;
6638;SDS011;3355;52.882;8.430;2023-08-24T17:18:50;5.50;;;4.53;;
6638;SDS011;3355;52.882;8.430;2023-08-24T17:21:16;5.00;;;4.43;;
6638;SDS011;3355;52.882;8.430;2023-08-24T17:23:44;5.70;;;4.30;;
6638;SDS011;3355;52.882;8.430;2023-08-24T17:26:11;6.07;;;5.47;;
6638;SDS011;3355;52.882;8.430;2023-08-24T17:28:37;5.20;;;4.80;;
6638;SDS011;3355;52.882;8.430;2023-08-24T17:31:04;4.50;;;4.10;;
6638;SDS011;3355;52.882;8.430;2023-08-24T17:33:31;5.20;;;4.70;;
6638;SDS011;3355;52.882;8.430;2023-08-24T17:35:58;4.70;;;4.23;;
6638;SDS011;3355;52.882;8.430;2023-08-24T17:38:26;5.10;;;4.50;;
6638;SDS011;3355;52.882;8.430;2023-08-24T17:40:56;5.33;;;4.83;;
6638;SDS011;3355;52.882;8.430;2023-08-24T17:43:27;5.60;;;5.10;;
6638;SDS011;3355;52.882;8.430;2023-08-24T17:45:53;5.30;;;4.80;;
6638;SDS011;3355;52.882;8.430;2023-08-24T17:48:20;5.77;;;4.43;;
6638;SDS011;3355;52.882;8.430;2023-08-24T17:50:50;5.43;;;4.97;;
6638;SDS011;3355;52.882;8.430;2023-08-24T17:53:18;4.70;;;4.30;;
6638;SDS011;3355;52.882;8.430;2023-08-24T17:55:46;6.53;;;5.93;;
6638;SDS011;3355;52.882;8.430;2023-08-24T17:58:18;5.93;;;5.40;;
6638;SDS011;3355;52.882;8.430;2023-08-24T18:00:45;5.03;;;4.60;;
6638;SDS011;3355;52.882;8.430;2023-08-24T18:03:12;5.17;;;4.63;;
6638;SDS011;3355;52.882;8.430;2023-08-24T18:05:38;5.47;;;4.97;;
6638;SDS011;3355;52.882;8.430;2023-08-24T18:08:05;5.77;;;5.17;;
6638;SDS011;3355;52.882;8.430;2023-08-24T18:10:32;5.97;;;5.40;;
6638;SDS011;3355;52.882;8.430;2023-08-24T18:12:58;5.40;;;4.90;;
6638;SDS011;3355;52.882;8.430;2023-08-24T18:15:26;5.83;;;4.93;;
6638;SDS011;3355;52.882;8.430;2023-08-24T18:17:53;5.40;;;5.00;;
6638;SDS011;3355;52.882;8.430;2023-08-24T18:20:20;6.50;;;5.57;;
6638;SDS011;3355;52.882;8.430;2023-08-24T18:22:47;6.17;;;4.97;;
6638;SDS011;3355;52.882;8.430;2023-08-24T18:25:13;5.20;;;4.70;;
6638;SDS011;3355;52.882;8.430;2023-08-24T18:27:40;5.43;;;4.93;;
6638;SDS011;3355;52.882;8.430;2023-08-24T18:30:07;6.07;;;5.40;;
6638;SDS011;3355;52.882;8.430;2023-08-24T18:32:36;4.80;;;4.40;;
6638;SDS011;3355;52.882;8.430;2023-08-24T18:35:03;6.77;;;4.70;;
6638;SDS011;3355;52.882;8.430;2023-08-24T18:37:30;6.23;;;5.63;;
6638;SDS011;3355;52.882;8.430;2023-08-24T18:39:56;5.70;;;5.20;;
6638;SDS011;3355;52.882;8.430;2023-08-24T18:42:23;6.20;;;5.40;;
6638;SDS011;3355;52.882;8.430;2023-08-24T18:44:51;7.87;;;5.00;;
6638;SDS011;3355;52.882;8.430;2023-08-24T18:47:17;5.70;;;5.20;;
6638;SDS011;3355;52.882;8.430;2023-08-24T18:49:45;5.40;;;4.90;;
6638;SDS011;3355;52.882;8.430;2023-08-24T18:52:12;5.80;;;5.30;;
6638;SDS011;3355;52.882;8.430;2023-08-24T18:54:38;5.60;;;5.10;;
6638;SDS011;3355;52.882;8.430;2023-08-24T18:57:05;6.17;;;5.67;;
6638;SDS011;3355;52.882;8.430;2023-08-24T18:59:32;6.50;;;5.87;;
6638;SDS011;3355;52.882;8.430;2023-08-24T19:01:58;5.60;;;5.10;;
6638;SDS011;3355;52.882;8.430;2023-08-24T19:04:25;6.03;;;5.43;;
6638;SDS011;3355;52.882;8.430;2023-08-24T19:06:53;6.47;;;5.87;;
6638;SDS011;3355;52.882;8.430;2023-08-24T19:09:19;6.60;;;6.00;;
6638;SDS011;3355;52.882;8.430;2023-08-24T19:11:46;6.90;;;6.20;;
6638;SDS011;3355;52.882;8.430;2023-08-24T19:14:12;6.13;;;5.50;;
6638;SDS011;3355;52.882;8.430;2023-08-24T19:16:39;5.70;;;5.20;;
6638;SDS011;3355;52.882;8.430;2023-08-24T19:19:05;6.53;;;5.63;;
6638;SDS011;3355;52.882;8.430;2023-08-24T19:21:32;5.70;;;5.20;;
6638;SDS011;3355;52.882;8.430;2023-08-24T19:24:00;5.50;;;5.10;;
6638;SDS011;3355;52.882;8.430;2023-08-24T19:26:26;6.33;;;5.43;;
6638;SDS011;3355;52.882;8.430;2023-08-24T19:28:53;6.57;;;6.00;;
6638;SDS011;3355;52.882;8.430;2023-08-24T19:31:20;6.83;;;5.53;;
6638;SDS011;3355;52.882;8.430;2023-08-24T19:33:46;6.03;;;5.43;;
6638;SDS011;3355;52.882;8.430;2023-08-24T19:36:13;6.40;;;5.30;;
6638;SDS011;3355;52.882;8.430;2023-08-24T19:38:40;5.47;;;4.97;;
6638;SDS011;3355;52.882;8.430;2023-08-24T19:41:08;12.23;;;5.57;;
6638;SDS011;3355;52.882;8.430;2023-08-24T19:43:35;6.47;;;5.87;;
6638;SDS011;3355;52.882;8.430;2023-08-24T19:46:01;6.73;;;5.67;;
6638;SDS011;3355;52.882;8.430;2023-08-24T19:48:28;9.73;;;5.17;;
6638;SDS011;3355;52.882;8.430;2023-08-24T19:50:55;6.77;;;5.20;;
6638;SDS011;3355;52.882;8.430;2023-08-24T19:53:22;6.20;;;5.57;;
6638;SDS011;3355;52.882;8.430;2023-08-24T19:55:48;5.93;;;5.33;;
6638;SDS011;3355;52.882;8.430;2023-08-24T19:58:16;6.43;;;4.80;;
6638;SDS011;3355;52.882;8.430;2023-08-24T20:00:43;7.73;;;4.87;;
6638;SDS011;3355;52.882;8.430;2023-08-24T20:03:10;5.77;;;5.30;;
6638;SDS011;3355;52.882;8.430;2023-08-24T20:05:36;6.27;;;5.70;;
6638;SDS011;3355;52.882;8.430;2023-08-24T20:08:03;6.33;;;5.73;;
6638;SDS011;3355;52.882;8.430;2023-08-24T20:10:30;7.00;;;5.60;;
6638;SDS011;3355;52.882;8.430;2023-08-24T20:12:57;5.50;;;5.00;;
6638;SDS011;3355;52.882;8.430;2023-08-24T20:15:25;5.87;;;5.27;;
6638;SDS011;3355;52.882;8.430;2023-08-24T20:17:51;5.20;;;4.70;;
6638;SDS011;3355;52.882;8.430;2023-08-24T20:20:18;5.43;;;4.90;;
6638;SDS011;3355;52.882;8.430;2023-08-24T20:22:47;6.80;;;4.70;;
6638;SDS011;3355;52.882;8.430;2023-08-24T20:25:17;6.77;;;5.00;;
6638;SDS011;3355;52.882;8.430;2023-08-24T20:27:44;6.43;;;5.00;;
6638;SDS011;3355;52.882;8.430;2023-08-24T20:30:11;8.13;;;5.73;;
6638;SDS011;3355;52.882;8.430;2023-08-24T20:32:39;7.20;;;6.17;;
6638;SDS011;3355;52.882;8.430;2023-08-24T20:35:06;6.30;;;5.70;;
6638;SDS011;3355;52.882;8.430;2023-08-24T20:37:33;5.40;;;4.70;;
6638;SDS011;3355;52.882;8.430;2023-08-24T20:40:00;7.37;;;5.83;;
6638;SDS011;3355;52.882;8.430;2023-08-24T20:42:26;9.00;;;6.27;;
6638;SDS011;3355;52.882;8.430;2023-08-24T20:44:53;6.40;;;5.80;;
6638;SDS011;3355;52.882;8.430;2023-08-24T20:47:20;9.07;;;6.43;;
6638;SDS011;3355;52.882;8.430;2023-08-24T20:49:48;6.23;;;5.63;;
6638;SDS011;3355;52.882;8.430;2023-08-24T20:52:16;9.47;;;6.07;;
6638;SDS011;3355;52.882;8.430;2023-08-24T20:54:43;6.63;;;5.73;;
6638;SDS011;3355;52.882;8.430;2023-08-24T20:57:11;6.23;;;5.73;;
6638;SDS011;3355;52.882;8.430;2023-08-24T20:59:37;6.30;;;5.70;;
6638;SDS011;3355;52.882;8.430;2023-08-24T21:02:04;7.60;;;6.53;;
6638;SDS011;3355;52.882;8.430;2023-08-24T21:04:31;9.33;;;6.80;;
6638;SDS011;3355;52.882;8.430;2023-08-24T21:07:00;7.70;;;7.00;;
6638;SDS011;3355;52.882;8.430;2023-08-24T21:09:26;7.23;;;6.60;;
6638;SDS011;3355;52.882;8.430;2023-08-24T21:11:53;6.80;;;6.10;;
6638;SDS011;3355;52.882;8.430;2023-08-24T21:14:19;6.10;;;5.50;;
6638;SDS011;3355;52.882;8.430;2023-08-24T21:16:46;7.50;;;6.43;;
6638;SDS011;3355;52.882;8.430;2023-08-24T21:19:13;9.40;;;5.17;;
6638;SDS011;3355;52.882;8.430;2023-08-24T21:21:40;6.47;;;5.40;;
6638;SDS011;3355;52.882;8.430;2023-08-24T21:24:07;6.27;;;5.67;;
6638;SDS011;3355;52.882;8.430;2023-08-24T21:26:34;6.80;;;5.87;;
6638;SDS011;3355;52.882;8.430;2023-08-24T21:29:00;6.20;;;5.60;;
6638;SDS011;3355;52.882;8.430;2023-08-24T21:31:27;9.73;;;6.83;;
6638;SDS011;3355;52.882;8.430;2023-08-24T21:33:54;6.57;;;5.57;;
6638;SDS011;3355;52.882;8.430;2023-08-24T21:36:20;7.17;;;6.47;;
6638;SDS011;3355;52.882;8.430;2023-08-24T21:38:47;7.87;;;7.00;;
6638;SDS011;3355;52.882;8.430;2023-08-24T21:41:14;7.47;;;6.60;;
6638;SDS011;3355;52.882;8.430;2023-08-24T21:43:41;7.17;;;6.23;;
6638;SDS011;3355;52.882;8.430;2023-08-24T21:46:08;7.57;;;6.77;;
6638;SDS011;3355;52.882;8.430;2023-08-24T21:48:37;7.47;;;6.77;;
6638;SDS011;3355;52.882;8.430;2023-08-24T21:51:03;8.27;;;6.97;;
6638;SDS011;3355;52.882;8.430;2023-08-24T21:53:30;8.47;;;7.10;;
6638;SDS011;3355;52.882;8.430;2023-08-24T21:55:56;9.73;;;7.90;;
6638;SDS011;3355;52.882;8.430;2023-08-24T21:58:24;9.37;;;8.50;;
6638;SDS011;3355;52.882;8.430;2023-08-24T22:00:58;10.80;;;9.80;;
6638;SDS011;3355;52.882;8.430;2023-08-24T22:03:25;9.90;;;9.00;;
6638;SDS011;3355;52.882;8.430;2023-08-24T22:05:51;10.57;;;9.57;;
6638;SDS011;3355;52.882;8.430;2023-08-24T22:08:19;11.20;;;10.10;;
6638;SDS011;3355;52.882;8.430;2023-08-24T22:10:48;10.83;;;9.73;;
6638;SDS011;3355;52.882;8.430;2023-08-24T22:13:15;9.67;;;8.70;;
6638;SDS011;3355;52.882;8.430;2023-08-24T22:15:43;10.40;;;9.40;;
6638;SDS011;3355;52.882;8.430;2023-08-24T22:18:10;10.87;;;9.00;;
6638;SDS011;3355;52.882;8.430;2023-08-24T22:20:37;10.27;;;9.30;;
6638;SDS011;3355;52.882;8.430;2023-08-24T22:23:03;9.53;;;8.70;;
6638;SDS011;3355;52.882;8.430;2023-08-24T22:25:30;10.03;;;9.00;;
6638;SDS011;3355;52.882;8.430;2023-08-24T22:27:57;9.57;;;8.53;;
6638;SDS011;3355;52.882;8.430;2023-08-24T22:30:24;9.67;;;8.67;;
6638;SDS011;3355;52.882;8.430;2023-08-24T22:32:51;10.20;;;9.20;;
6638;SDS011;3355;52.882;8.430;2023-08-24T22:35:18;12.30;;;9.30;;
6638;SDS011;3355;52.882;8.430;2023-08-24T22:37:44;11.40;;;9.13;;
6638;SDS011;3355;52.882;8.430;2023-08-24T22:40:11;9.90;;;9.00;;
6638;SDS011;3355;52.882;8.430;2023-08-24T22:42:38;10.20;;;9.20;;
6638;SDS011;3355;52.882;8.430;2023-08-24T22:45:06;9.70;;;8.70;;
6638;SDS011;3355;52.882;8.430;2023-08-24T22:47:34;11.20;;;8.83;;
6638;SDS011;3355;52.882;8.430;2023-08-24T22:50:03;10.70;;;9.10;;
6638;SDS011;3355;52.882;8.430;2023-08-24T22:52:31;9.53;;;8.67;;
6638;SDS011;3355;52.882;8.430;2023-08-24T22:54:58;9.07;;;7.93;;
6638;SDS011;3355;52.882;8.430;2023-08-24T22:57:25;10.53;;;8.10;;
6638;SDS011;3355;52.882;8.430;2023-08-24T22:59:51;10.00;;;9.10;;
6638;SDS011;3355;52.882;8.430;2023-08-24T23:02:18;11.63;;;8.30;;
6638;SDS011;3355;52.882;8.430;2023-08-24T23:04:44;8.87;;;7.97;;
6638;SDS011;3355;52.882;8.430;2023-08-24T23:07:13;8.70;;;7.87;;
6638;SDS011;3355;52.882;8.430;2023-08-24T23:09:40;9.33;;;8.17;;
6638;SDS011;3355;52.882;8.430;2023-08-24T23:12:07;9.03;;;8.13;;
6638;SDS011;3355;52.882;8.430;2023-08-24T23:14:34;10.30;;;7.43;;
6638;SDS011;3355;52.882;8.430;2023-08-24T23:17:01;9.27;;;8.37;;
6638;SDS011;3355;52.882;8.430;2023-08-24T23:19:27;8.73;;;7.70;;
6638;SDS011;3355;52.882;8.430;2023-08-24T23:21:56;8.30;;;7.50;;